createdAt,value
2022-10-28T00:02:37.187Z,100.00
2022-10-28T00:05:43.010Z,100.00
2022-10-28T00:08:49.591Z,100.00
2022-10-28T00:11:54.838Z,100.00
2022-10-28T00:15:00.015Z,100.00
2022-10-28T00:18:05.238Z,100.00
2022-10-28T00:21:14.738Z,100.00
2022-10-28T00:24:20.278Z,100.00
2022-10-28T00:27:25.824Z,100.00
2022-10-28T00:33:42.355Z,100.00
2022-10-28T00:36:48.693Z,100.00
2022-10-28T00:39:54.288Z,100.00
2022-10-28T00:42:59.632Z,100.00
2022-10-28T00:46:14.407Z,100.00
2022-10-28T00:49:25.143Z,100.00
2022-10-28T00:52:32.914Z,100.00
2022-10-28T00:55:38.651Z,100.00
2022-10-28T00:58:46.171Z,100.00
2022-10-28T01:01:51.985Z,100.00
2022-10-28T01:04:57.642Z,100.00
2022-10-28T01:08:04.722Z,100.00
2022-10-28T01:11:27.910Z,100.00
2022-10-28T01:14:39.611Z,100.00
2022-10-28T01:17:51.295Z,100.00
2022-10-28T01:21:45.887Z,100.00
2022-10-28T01:24:57.215Z,100.00
2022-10-28T01:28:33.479Z,100.00
2022-10-28T01:31:59.383Z,100.00
2022-10-28T01:35:12.479Z,100.00
2022-10-28T01:38:18.221Z,100.00
2022-10-28T01:41:36.167Z,100.00
2022-10-28T01:44:59.682Z,100.00
2022-10-28T01:48:20.497Z,100.00
2022-10-28T01:51:42.215Z,100.00
2022-10-28T01:54:52.758Z,100.00
2022-10-28T01:58:01.775Z,100.00
2022-10-28T02:01:09.794Z,100.00
2022-10-28T02:04:15.559Z,100.00
2022-10-28T02:07:21.256Z,100.00
2022-10-28T02:10:37.343Z,100.00
2022-10-28T02:14:06.954Z,100.00
2022-10-28T02:17:57.683Z,100.00
2022-10-28T02:21:13.822Z,100.00
2022-10-28T02:24:38.669Z,100.00
2022-10-28T02:27:58.561Z,100.00
2022-10-28T02:31:19.307Z,100.00
2022-10-28T02:34:30.732Z,100.00
2022-10-28T02:37:39.469Z,100.00
2022-10-28T02:44:03.254Z,100.00
2022-10-28T02:47:16.620Z,100.00
2022-10-28T02:50:31.082Z,100.00
2022-10-28T02:53:48.259Z,100.00
2022-10-28T02:56:59.689Z,100.00
2022-10-28T03:00:18.710Z,100.00
2022-10-28T03:03:24.200Z,100.00
2022-10-28T03:06:29.656Z,100.00
2022-10-28T03:09:35.277Z,100.00
2022-10-28T03:12:40.672Z,100.00
2022-10-28T03:15:47.921Z,100.00
2022-10-28T03:18:54.516Z,100.00
2022-10-28T03:21:59.961Z,100.00
2022-10-28T03:25:06.916Z,100.00
2022-10-28T03:28:12.698Z,100.00
2022-10-28T03:31:18.435Z,100.00
2022-10-28T03:34:23.868Z,100.00
2022-10-28T03:37:29.713Z,100.00
2022-10-28T03:40:35.577Z,100.00
2022-10-28T03:43:41.837Z,100.00
2022-10-28T03:46:47.395Z,100.00
2022-10-28T03:49:52.770Z,100.00
2022-10-28T03:52:58.183Z,100.00
2022-10-28T03:56:03.965Z,100.00
2022-10-28T03:59:10.396Z,100.00
2022-10-28T04:02:16.199Z,100.00
2022-10-28T04:05:22.437Z,100.00
2022-10-28T04:08:28.440Z,100.00
2022-10-28T04:11:34.177Z,100.00
2022-10-28T04:14:39.715Z,100.00
2022-10-28T04:17:45.530Z,100.00
2022-10-28T04:20:52.712Z,100.00
2022-10-28T04:23:57.990Z,100.00
2022-10-28T04:27:03.146Z,100.00
2022-10-28T04:30:09.809Z,100.00
2022-10-28T04:33:14.980Z,100.00
2022-10-28T04:36:20.037Z,100.00
2022-10-28T04:39:25.558Z,100.00
2022-10-28T04:42:31.386Z,100.00
2022-10-28T04:45:36.962Z,100.00
2022-10-28T04:48:42.366Z,100.00
2022-10-28T04:54:58.144Z,100.00
2022-10-28T04:58:04.031Z,100.00
2022-10-28T05:01:11.001Z,100.00
2022-10-28T05:04:17.286Z,100.00
2022-10-28T05:07:23.655Z,100.00
2022-10-28T05:10:29.343Z,100.00
2022-10-28T05:13:34.965Z,100.00
2022-10-28T05:16:40.881Z,100.00
2022-10-28T05:19:46.787Z,100.00
2022-10-28T05:22:55.291Z,100.00
2022-10-28T05:26:01.419Z,100.00
2022-10-28T05:29:07.130Z,100.00
2022-10-28T05:32:12.733Z,100.00
2022-10-28T05:35:18.071Z,100.00
2022-10-28T05:38:23.754Z,100.00
2022-10-28T05:41:29.401Z,100.00
2022-10-28T05:44:34.944Z,100.00
2022-10-28T05:47:45.249Z,100.00
2022-10-28T05:50:50.612Z,100.00
2022-10-28T05:53:55.913Z,100.00
2022-10-28T05:57:01.887Z,100.00
2022-10-28T06:00:08.484Z,100.00
2022-10-28T06:03:24.968Z,100.00
2022-10-28T06:06:34.288Z,100.00
2022-10-28T06:09:40.277Z,100.00
2022-10-28T06:12:43.860Z,100.00
2022-10-28T06:15:56.459Z,100.00
2022-10-28T06:19:02.261Z,100.00
2022-10-28T06:22:07.776Z,100.00
2022-10-28T06:25:13.440Z,100.00
2022-10-28T06:28:19.423Z,100.00
2022-10-28T06:31:25.527Z,100.00
2022-10-28T06:34:31.114Z,100.00
2022-10-28T06:37:36.775Z,100.00
2022-10-28T06:40:42.741Z,100.00
2022-10-28T06:43:48.134Z,100.00
2022-10-28T06:46:55.985Z,100.00
2022-10-28T06:50:01.451Z,100.00
2022-10-28T06:53:06.871Z,100.00
2022-10-28T06:56:12.203Z,100.00
2022-10-28T06:59:17.890Z,100.00
2022-10-28T07:02:23.574Z,100.00
2022-10-28T07:05:29.755Z,100.00
2022-10-28T07:08:35.427Z,100.00
2022-10-28T07:11:43.840Z,100.00
2022-10-28T07:14:49.310Z,100.00
2022-10-28T07:17:59.531Z,100.00
2022-10-28T07:21:05.392Z,100.00
2022-10-28T07:24:10.921Z,100.00
2022-10-28T07:27:16.438Z,100.00
2022-10-28T07:30:21.973Z,100.00
2022-10-28T07:33:27.933Z,100.00
2022-10-28T07:36:33.430Z,100.00
2022-10-28T07:39:39.471Z,100.00
2022-10-28T07:42:45.154Z,100.00
2022-10-28T07:46:00.674Z,100.00
2022-10-28T07:49:06.067Z,100.00
2022-10-28T07:52:11.680Z,100.00
2022-10-28T07:55:17.126Z,100.00
2022-10-28T07:58:22.904Z,100.00
2022-10-28T08:01:28.392Z,100.00
2022-10-28T08:04:34.524Z,100.00
2022-10-28T08:07:40.061Z,100.00
2022-10-28T08:10:45.603Z,100.00
2022-10-28T08:13:52.541Z,100.00
2022-10-28T08:16:57.903Z,100.00
2022-10-28T08:20:03.438Z,100.00
2022-10-28T08:23:09.181Z,100.00
2022-10-28T08:26:16.701Z,100.00
2022-10-28T08:29:24.196Z,100.00
2022-10-28T08:32:33.279Z,100.00
2022-10-28T08:35:39.050Z,100.00
2022-10-28T08:38:47.024Z,100.00
2022-10-28T08:41:58.262Z,100.00
2022-10-28T08:45:22.119Z,100.00
2022-10-28T08:48:33.349Z,100.00
2022-10-28T08:51:45.420Z,100.00
2022-10-28T08:54:58.253Z,100.00
2022-10-28T08:58:13.181Z,100.00
2022-10-28T09:01:35.885Z,100.00
2022-10-28T09:04:44.926Z,100.00
2022-10-28T09:07:51.121Z,100.00
2022-10-28T09:11:06.565Z,100.00
2022-10-28T09:14:57.000Z,100.00
2022-10-28T09:18:19.762Z,100.00
2022-10-28T09:21:35.779Z,100.00
2022-10-28T09:24:53.128Z,100.00
2022-10-28T09:28:28.132Z,100.00
2022-10-28T09:32:04.164Z,100.00
2022-10-28T09:35:17.624Z,100.00
2022-10-28T09:38:42.443Z,100.00
2022-10-28T09:41:50.647Z,100.00
2022-10-28T09:45:04.863Z,100.00
2022-10-28T09:48:34.985Z,100.00
2022-10-28T09:51:55.953Z,100.00
2022-10-28T09:55:08.301Z,100.00
2022-10-28T09:58:14.225Z,99.09
2022-10-28T10:01:21.063Z,97.29
2022-10-28T10:04:31.633Z,98.07
2022-10-28T10:07:47.656Z,97.70
2022-10-28T10:10:57.906Z,97.36
2022-10-28T10:14:10.581Z,94.96
2022-10-28T10:17:20.989Z,94.01
2022-10-28T10:20:27.565Z,93.68
2022-10-28T10:23:35.715Z,94.81
2022-10-28T10:26:41.038Z,95.95
2022-10-28T10:29:52.510Z,93.36
2022-10-28T10:32:59.003Z,91.70
2022-10-28T10:36:14.933Z,92.50
2022-10-28T10:39:28.270Z,91.67
2022-10-28T10:42:39.188Z,91.33
2022-10-28T10:46:13.285Z,91.45
2022-10-28T10:49:19.211Z,91.46
2022-10-28T10:52:26.506Z,90.21
2022-10-28T10:55:41.598Z,90.20
2022-10-28T10:58:52.209Z,90.67
2022-10-28T11:02:00.402Z,89.98
2022-10-28T11:05:09.961Z,90.81
2022-10-28T11:08:35.521Z,86.87
2022-10-28T11:11:41.479Z,86.74
2022-10-28T11:15:01.237Z,86.66
2022-10-28T11:18:09.643Z,86.01
2022-10-28T11:21:33.183Z,86.30
2022-10-28T11:25:09.005Z,83.76
2022-10-28T11:29:01.108Z,82.52
2022-10-28T11:32:28.852Z,81.48
2022-10-28T11:35:38.144Z,82.87
2022-10-28T11:38:49.488Z,80.27
2022-10-28T11:42:13.552Z,80.04
2022-10-28T11:45:28.773Z,78.78
2022-10-28T11:49:09.093Z,77.28
2022-10-28T11:52:42.745Z,77.90
2022-10-28T11:56:29.507Z,76.54
2022-10-28T11:59:56.841Z,74.28
2022-10-28T12:03:16.080Z,75.43
2022-10-28T12:06:21.320Z,74.22
2022-10-28T12:09:57.575Z,74.23
2022-10-28T12:13:13.651Z,71.68
2022-10-28T12:16:26.281Z,69.89
2022-10-28T12:19:43.447Z,69.41
2022-10-28T12:23:00.542Z,68.48
2022-10-28T12:26:13.282Z,68.57
2022-10-28T12:29:27.719Z,68.25
2022-10-28T12:32:37.620Z,68.77
2022-10-28T12:36:18.445Z,68.06
2022-10-28T12:39:38.942Z,66.44
2022-10-28T12:42:56.595Z,67.14
2022-10-28T12:46:03.813Z,66.42
2022-10-28T12:49:22.410Z,64.98
2022-10-28T12:52:51.835Z,65.65
2022-10-28T12:56:00.877Z,66.41
2022-10-28T12:59:16.107Z,65.29
2022-10-28T13:02:28.767Z,67.46
2022-10-28T13:05:51.073Z,66.71
2022-10-28T13:09:37.821Z,66.26
2022-10-28T13:13:13.539Z,65.71
2022-10-28T13:16:49.361Z,67.17
2022-10-28T13:20:03.560Z,67.79
2022-10-28T13:23:09.245Z,69.16
2022-10-28T13:26:41.846Z,71.15
2022-10-28T13:29:53.029Z,70.72
2022-10-28T13:33:10.143Z,70.88
2022-10-28T13:36:26.725Z,70.86
2022-10-28T13:39:32.875Z,71.58
2022-10-28T13:42:50.054Z,71.01
2022-10-28T13:45:56.937Z,70.88
2022-10-28T13:49:41.624Z,71.69
2022-10-28T13:52:48.542Z,72.20
2022-10-28T13:55:58.423Z,72.65
2022-10-28T13:59:12.999Z,71.98
2022-10-28T14:02:34.984Z,73.16
2022-10-28T14:05:44.568Z,74.29
2022-10-28T14:08:49.992Z,76.13
2022-10-28T14:12:09.271Z,79.42
2022-10-28T14:15:14.786Z,80.14
2022-10-28T14:22:03.239Z,82.07
2022-10-28T14:25:39.966Z,82.32
2022-10-28T14:28:51.398Z,83.86
2022-10-28T14:31:57.042Z,82.61
2022-10-28T14:35:14.242Z,82.40
2022-10-28T14:38:51.247Z,81.68
2022-10-28T14:42:33.301Z,82.23
2022-10-28T14:46:01.779Z,82.43
2022-10-28T14:49:20.629Z,83.45
2022-10-28T14:52:28.862Z,83.30
2022-10-28T14:55:35.375Z,83.99
2022-10-28T14:58:44.226Z,84.40
2022-10-28T15:02:37.279Z,83.38
2022-10-28T15:05:43.426Z,83.93
2022-10-28T15:08:48.775Z,84.92
2022-10-28T15:12:03.021Z,83.48
2022-10-28T15:15:26.225Z,82.93
2022-10-28T15:18:31.885Z,84.05
2022-10-28T15:21:37.592Z,84.04
2022-10-28T15:24:57.298Z,84.83
2022-10-28T15:28:03.397Z,85.22
2022-10-28T15:31:09.924Z,86.21
2022-10-28T15:34:23.597Z,87.49
2022-10-28T15:37:31.177Z,86.80
2022-10-28T15:40:38.649Z,87.37
2022-10-28T15:43:55.288Z,87.98
2022-10-28T15:47:16.861Z,88.90
2022-10-28T15:50:42.071Z,89.74
2022-10-28T15:53:54.608Z,90.61
2022-10-28T15:57:00.509Z,90.93
2022-10-28T16:00:20.541Z,91.37
2022-10-28T16:06:39.160Z,92.27
2022-10-28T16:09:51.014Z,92.73
2022-10-28T16:12:56.154Z,94.02
2022-10-28T16:16:27.391Z,94.11
2022-10-28T16:19:38.525Z,94.20
2022-10-28T16:22:45.014Z,94.92
2022-10-28T16:25:50.772Z,95.44
2022-10-28T16:28:56.983Z,96.55
2022-10-28T16:32:02.394Z,96.95
2022-10-28T16:35:26.926Z,97.92
2022-10-28T16:38:33.691Z,97.65
2022-10-28T16:41:41.391Z,98.11
2022-10-28T16:44:48.003Z,98.35
2022-10-28T16:47:53.463Z,99.59
2022-10-28T16:51:06.046Z,99.62
2022-10-28T16:54:11.510Z,100.00
2022-10-28T16:57:18.153Z,100.00
2022-10-28T17:00:23.390Z,100.00
2022-10-28T17:03:29.110Z,100.00
2022-10-28T17:06:34.656Z,100.00
2022-10-28T17:09:40.149Z,100.00
2022-10-28T17:12:45.734Z,100.00
2022-10-28T17:15:54.487Z,100.00
2022-10-28T17:19:00.693Z,100.00
2022-10-28T17:22:09.303Z,100.00
2022-10-28T17:25:19.071Z,100.00
2022-10-28T17:28:25.980Z,100.00
2022-10-28T17:31:31.845Z,100.00
2022-10-28T17:34:38.059Z,100.00
2022-10-28T17:37:43.296Z,100.00
2022-10-28T17:40:58.536Z,100.00
2022-10-28T17:44:05.141Z,100.00
2022-10-28T17:47:12.713Z,100.00
2022-10-28T17:50:18.300Z,100.00
2022-10-28T17:53:23.914Z,100.00
2022-10-28T17:56:29.599Z,100.00
2022-10-28T17:59:37.128Z,100.00
2022-10-28T18:02:43.498Z,100.00
2022-10-28T18:05:49.113Z,100.00
2022-10-28T18:08:54.295Z,100.00
2022-10-28T18:12:02.356Z,100.00
2022-10-28T18:15:10.009Z,100.00
2022-10-28T18:18:16.576Z,100.00
2022-10-28T18:21:24.803Z,100.00
2022-10-28T18:24:30.174Z,100.00
2022-10-28T18:27:36.339Z,100.00
2022-10-28T18:30:41.634Z,100.00
2022-10-28T18:33:47.758Z,100.00
2022-10-28T18:36:53.147Z,100.00
2022-10-28T18:39:58.483Z,100.00
2022-10-28T18:43:03.795Z,100.00
2022-10-28T18:46:10.029Z,100.00
2022-10-28T18:49:15.092Z,100.00
2022-10-28T18:52:20.285Z,100.00
2022-10-28T18:55:26.077Z,100.00
2022-10-28T18:58:31.353Z,100.00
2022-10-28T19:01:37.970Z,100.00
2022-10-28T19:04:43.782Z,100.00
2022-10-28T19:07:49.159Z,100.00
2022-10-28T19:10:58.810Z,100.00
2022-10-28T19:14:06.919Z,100.00
2022-10-28T19:17:12.821Z,100.00
2022-10-28T19:20:22.828Z,100.00
2022-10-28T19:23:29.382Z,100.00
2022-10-28T19:26:35.132Z,100.00
2022-10-28T19:29:40.942Z,100.00
2022-10-28T19:32:46.290Z,100.00
2022-10-28T19:35:51.977Z,100.00
2022-10-28T19:38:58.277Z,100.00
2022-10-28T19:42:03.282Z,100.00
2022-10-28T19:45:09.421Z,100.00
2022-10-28T19:48:14.664Z,100.00
2022-10-28T19:51:22.206Z,100.00
2022-10-28T19:54:27.728Z,100.00
2022-10-28T19:57:33.057Z,100.00
2022-10-28T20:00:38.068Z,100.00
2022-10-28T20:03:48.944Z,100.00
2022-10-28T20:06:58.049Z,100.00
2022-10-28T20:10:03.610Z,100.00
2022-10-28T20:13:10.526Z,100.00
2022-10-28T20:16:18.127Z,100.00
2022-10-28T20:19:23.627Z,100.00
2022-10-28T20:22:29.183Z,100.00
2022-10-28T20:25:34.659Z,100.00
2022-10-28T20:28:40.302Z,100.00
2022-10-28T20:31:45.912Z,100.00
2022-10-28T20:34:51.332Z,100.00
2022-10-28T20:37:57.955Z,100.00
2022-10-28T20:41:07.603Z,100.00
2022-10-28T20:44:16.093Z,100.00
2022-10-28T20:47:21.600Z,100.00
2022-10-28T20:50:27.177Z,100.00
2022-10-28T20:53:35.365Z,100.00
2022-10-28T20:56:42.330Z,100.00
2022-10-28T20:59:52.065Z,100.00
2022-10-28T21:03:42.553Z,100.00
2022-10-28T21:06:48.302Z,100.00
2022-10-28T21:09:53.638Z,100.00
2022-10-28T21:13:44.363Z,100.00
2022-10-28T21:16:53.068Z,100.00
2022-10-28T21:19:58.447Z,100.00
2022-10-28T21:23:05.305Z,100.00
2022-10-28T21:26:12.916Z,100.00
2022-10-28T21:29:18.250Z,100.00
2022-10-28T21:32:24.239Z,100.00
2022-10-28T21:35:30.054Z,100.00
2022-10-28T21:38:36.131Z,100.00
2022-10-28T21:41:41.555Z,100.00
2022-10-28T21:44:47.261Z,100.00
2022-10-28T21:47:57.335Z,100.00
2022-10-28T21:51:08.631Z,100.00
2022-10-28T21:54:18.713Z,100.00
2022-10-28T21:57:30.003Z,100.00
2022-10-28T22:00:35.747Z,100.00
2022-10-28T22:03:41.647Z,100.00
2022-10-28T22:09:57.502Z,100.00
2022-10-28T22:13:02.519Z,100.00
2022-10-28T22:16:13.332Z,100.00
2022-10-28T22:19:18.817Z,100.00
2022-10-28T22:22:26.312Z,100.00
2022-10-28T22:25:31.928Z,100.00
2022-10-28T22:28:37.783Z,100.00
2022-10-28T22:31:43.479Z,100.00
2022-10-28T22:34:48.880Z,100.00
2022-10-28T22:37:54.503Z,100.00
2022-10-28T22:41:16.909Z,100.00
2022-10-28T22:44:22.542Z,100.00
2022-10-28T22:47:27.994Z,100.00
2022-10-28T22:50:33.218Z,100.00
2022-10-28T22:53:40.011Z,100.00
2022-10-28T22:56:46.022Z,100.00
2022-10-28T22:59:51.406Z,100.00
2022-10-28T23:02:58.043Z,100.00
2022-10-28T23:06:04.397Z,100.00
2022-10-28T23:09:09.428Z,100.00
2022-10-28T23:12:14.571Z,100.00
2022-10-28T23:15:19.999Z,100.00
2022-10-28T23:18:28.533Z,100.00
2022-10-28T23:21:33.970Z,100.00
2022-10-28T23:24:40.211Z,100.00
2022-10-28T23:27:46.095Z,100.00
2022-10-28T23:30:51.802Z,100.00
2022-10-28T23:33:58.608Z,100.00
2022-10-28T23:37:03.991Z,100.00
2022-10-28T23:43:20.808Z,100.00
2022-10-28T23:46:26.307Z,100.00
2022-10-28T23:49:31.559Z,100.00
2022-10-28T23:52:38.152Z,100.00
2022-10-28T23:55:45.050Z,100.00
2022-10-28T23:58:50.214Z,100.00
